sensor_id;sensor_type;location;lat;lon;timestamp;P1;durP1;ratioP1;P2;durP2;ratioP2
50968;SDS011;36982;51.474;7.228;2023-04-07T00:00:56;9.17;;;6.97;;
50968;SDS011;36982;51.474;7.228;2023-04-07T00:03:22;9.20;;;6.97;;
50968;SDS011;36982;51.474;7.228;2023-04-07T00:05:48;8.90;;;7.03;;
50968;SDS011;36982;51.474;7.228;2023-04-07T00:08:13;9.30;;;7.17;;
50968;SDS011;36982;51.474;7.228;2023-04-07T00:10:39;9.00;;;7.07;;
50968;SDS011;36982;51.474;7.228;2023-04-07T00:13:05;10.03;;;7.60;;
50968;SDS011;36982;51.474;7.228;2023-04-07T00:15:31;9.37;;;7.03;;
50968;SDS011;36982;51.474;7.228;2023-04-07T00:17:56;10.33;;;7.30;;
50968;SDS011;36982;51.474;7.228;2023-04-07T00:20:22;8.53;;;6.63;;
50968;SDS011;36982;51.474;7.228;2023-04-07T00:22:48;8.40;;;6.73;;
50968;SDS011;36982;51.474;7.228;2023-04-07T00:25:13;8.83;;;7.33;;
50968;SDS011;36982;51.474;7.228;2023-04-07T00:27:39;10.77;;;7.97;;
50968;SDS011;36982;51.474;7.228;2023-04-07T00:30:05;8.87;;;7.53;;
50968;SDS011;36982;51.474;7.228;2023-04-07T00:32:31;10.43;;;7.67;;
50968;SDS011;36982;51.474;7.228;2023-04-07T00:34:57;10.53;;;7.40;;
50968;SDS011;36982;51.474;7.228;2023-04-07T00:37:22;8.27;;;7.07;;
50968;SDS011;36982;51.474;7.228;2023-04-07T00:39:49;11.63;;;7.40;;
50968;SDS011;36982;51.474;7.228;2023-04-07T00:42:16;9.63;;;7.10;;
50968;SDS011;36982;51.474;7.228;2023-04-07T00:44:42;8.13;;;6.97;;
50968;SDS011;36982;51.474;7.228;2023-04-07T00:47:08;8.73;;;6.93;;
50968;SDS011;36982;51.474;7.228;2023-04-07T00:49:33;8.67;;;7.10;;
50968;SDS011;36982;51.474;7.228;2023-04-07T00:52:01;9.67;;;7.43;;
50968;SDS011;36982;51.474;7.228;2023-04-07T00:54:27;10.37;;;7.40;;
50968;SDS011;36982;51.474;7.228;2023-04-07T00:56:54;9.70;;;7.97;;
50968;SDS011;36982;51.474;7.228;2023-04-07T00:59:21;9.83;;;7.50;;
50968;SDS011;36982;51.474;7.228;2023-04-07T01:04:56;9.73;;;8.03;;
50968;SDS011;36982;51.474;7.228;2023-04-07T01:07:38;10.00;;;7.80;;
50968;SDS011;36982;51.474;7.228;2023-04-07T01:10:36;10.43;;;8.50;;
50968;SDS011;36982;51.474;7.228;2023-04-07T01:15:51;10.37;;;7.83;;
50968;SDS011;36982;51.474;7.228;2023-04-07T01:18:21;10.43;;;8.37;;
50968;SDS011;36982;51.474;7.228;2023-04-07T01:20:51;10.67;;;8.23;;
50968;SDS011;36982;51.474;7.228;2023-04-07T01:23:28;9.70;;;7.80;;
50968;SDS011;36982;51.474;7.228;2023-04-07T01:29:29;11.37;;;8.63;;
50968;SDS011;36982;51.474;7.228;2023-04-07T01:32:03;10.23;;;8.60;;
50968;SDS011;36982;51.474;7.228;2023-04-07T01:34:30;12.60;;;8.07;;
50968;SDS011;36982;51.474;7.228;2023-04-07T01:36:58;10.37;;;8.30;;
50968;SDS011;36982;51.474;7.228;2023-04-07T01:39:26;11.17;;;8.23;;
50968;SDS011;36982;51.474;7.228;2023-04-07T01:41:53;10.17;;;8.40;;
50968;SDS011;36982;51.474;7.228;2023-04-07T01:44:20;11.37;;;8.83;;
50968;SDS011;36982;51.474;7.228;2023-04-07T01:46:47;10.73;;;8.50;;
50968;SDS011;36982;51.474;7.228;2023-04-07T01:49:14;11.13;;;8.70;;
50968;SDS011;36982;51.474;7.228;2023-04-07T01:51:41;10.90;;;8.60;;
50968;SDS011;36982;51.474;7.228;2023-04-07T01:54:08;12.13;;;8.60;;
50968;SDS011;36982;51.474;7.228;2023-04-07T01:56:34;11.33;;;9.17;;
50968;SDS011;36982;51.474;7.228;2023-04-07T01:59:00;10.97;;;8.40;;
50968;SDS011;36982;51.474;7.228;2023-04-07T02:01:25;10.27;;;8.27;;
50968;SDS011;36982;51.474;7.228;2023-04-07T02:03:52;10.20;;;8.20;;
50968;SDS011;36982;51.474;7.228;2023-04-07T02:06:27;11.57;;;9.17;;
50968;SDS011;36982;51.474;7.228;2023-04-07T02:08:58;11.50;;;9.03;;
50968;SDS011;36982;51.474;7.228;2023-04-07T02:11:28;11.87;;;8.93;;
50968;SDS011;36982;51.474;7.228;2023-04-07T02:13:56;11.27;;;8.83;;
50968;SDS011;36982;51.474;7.228;2023-04-07T02:16:26;11.20;;;8.93;;
50968;SDS011;36982;51.474;7.228;2023-04-07T02:18:54;13.30;;;10.07;;
50968;SDS011;36982;51.474;7.228;2023-04-07T02:21:21;12.43;;;8.90;;
50968;SDS011;36982;51.474;7.228;2023-04-07T02:23:48;13.60;;;10.17;;
50968;SDS011;36982;51.474;7.228;2023-04-07T02:26:13;10.47;;;8.47;;
50968;SDS011;36982;51.474;7.228;2023-04-07T02:28:39;12.03;;;9.43;;
50968;SDS011;36982;51.474;7.228;2023-04-07T02:31:05;11.90;;;9.50;;
50968;SDS011;36982;51.474;7.228;2023-04-07T02:33:30;14.17;;;9.57;;
50968;SDS011;36982;51.474;7.228;2023-04-07T02:35:56;13.07;;;9.70;;
50968;SDS011;36982;51.474;7.228;2023-04-07T02:38:21;13.37;;;10.07;;
50968;SDS011;36982;51.474;7.228;2023-04-07T02:40:47;14.57;;;10.20;;
50968;SDS011;36982;51.474;7.228;2023-04-07T02:43:13;15.60;;;11.50;;
50968;SDS011;36982;51.474;7.228;2023-04-07T02:45:38;13.90;;;10.23;;
50968;SDS011;36982;51.474;7.228;2023-04-07T02:48:04;14.43;;;11.00;;
50968;SDS011;36982;51.474;7.228;2023-04-07T02:50:30;12.70;;;9.93;;
50968;SDS011;36982;51.474;7.228;2023-04-07T02:52:55;13.70;;;10.67;;
50968;SDS011;36982;51.474;7.228;2023-04-07T02:55:21;12.77;;;10.23;;
50968;SDS011;36982;51.474;7.228;2023-04-07T02:57:46;15.97;;;11.43;;
50968;SDS011;36982;51.474;7.228;2023-04-07T03:00:13;16.13;;;11.83;;
50968;SDS011;36982;51.474;7.228;2023-04-07T03:02:39;15.10;;;11.60;;
50968;SDS011;36982;51.474;7.228;2023-04-07T03:05:05;16.40;;;12.00;;
50968;SDS011;36982;51.474;7.228;2023-04-07T03:07:31;16.93;;;12.80;;
50968;SDS011;36982;51.474;7.228;2023-04-07T03:09:56;17.97;;;13.13;;
50968;SDS011;36982;51.474;7.228;2023-04-07T03:12:22;18.40;;;13.53;;
50968;SDS011;36982;51.474;7.228;2023-04-07T03:14:48;18.90;;;14.10;;
50968;SDS011;36982;51.474;7.228;2023-04-07T03:17:13;17.47;;;13.77;;
50968;SDS011;36982;51.474;7.228;2023-04-07T03:19:39;18.97;;;13.90;;
50968;SDS011;36982;51.474;7.228;2023-04-07T03:22:05;20.07;;;13.67;;
50968;SDS011;36982;51.474;7.228;2023-04-07T03:24:30;19.30;;;13.47;;
50968;SDS011;36982;51.474;7.228;2023-04-07T03:26:56;17.73;;;13.00;;
50968;SDS011;36982;51.474;7.228;2023-04-07T03:29:22;19.30;;;13.33;;
50968;SDS011;36982;51.474;7.228;2023-04-07T03:31:48;19.37;;;13.93;;
50968;SDS011;36982;51.474;7.228;2023-04-07T03:34:13;21.00;;;13.90;;
50968;SDS011;36982;51.474;7.228;2023-04-07T03:36:39;17.73;;;12.87;;
50968;SDS011;36982;51.474;7.228;2023-04-07T03:39:05;20.53;;;13.50;;
50968;SDS011;36982;51.474;7.228;2023-04-07T03:41:30;21.10;;;14.30;;
50968;SDS011;36982;51.474;7.228;2023-04-07T03:43:56;20.83;;;14.20;;
50968;SDS011;36982;51.474;7.228;2023-04-07T03:46:22;23.67;;;14.97;;
50968;SDS011;36982;51.474;7.228;2023-04-07T03:48:50;23.87;;;15.13;;
50968;SDS011;36982;51.474;7.228;2023-04-07T03:51:16;23.97;;;14.83;;
50968;SDS011;36982;51.474;7.228;2023-04-07T03:53:42;22.90;;;14.07;;
50968;SDS011;36982;51.474;7.228;2023-04-07T03:56:07;25.47;;;14.90;;
50968;SDS011;36982;51.474;7.228;2023-04-07T03:58:33;25.80;;;15.30;;
50968;SDS011;36982;51.474;7.228;2023-04-07T04:00:59;29.33;;;16.23;;
50968;SDS011;36982;51.474;7.228;2023-04-07T04:03:25;29.77;;;16.50;;
50968;SDS011;36982;51.474;7.228;2023-04-07T04:05:51;32.37;;;17.70;;
50968;SDS011;36982;51.474;7.228;2023-04-07T04:08:16;34.80;;;18.40;;
50968;SDS011;36982;51.474;7.228;2023-04-07T04:10:42;30.80;;;17.07;;
50968;SDS011;36982;51.474;7.228;2023-04-07T04:13:08;33.10;;;17.60;;
50968;SDS011;36982;51.474;7.228;2023-04-07T04:15:33;31.67;;;18.20;;
50968;SDS011;36982;51.474;7.228;2023-04-07T04:17:59;34.03;;;18.13;;
50968;SDS011;36982;51.474;7.228;2023-04-07T04:20:25;31.87;;;17.30;;
50968;SDS011;36982;51.474;7.228;2023-04-07T04:22:51;34.23;;;16.97;;
50968;SDS011;36982;51.474;7.228;2023-04-07T04:25:16;28.37;;;16.20;;
50968;SDS011;36982;51.474;7.228;2023-04-07T04:27:42;33.07;;;17.23;;
50968;SDS011;36982;51.474;7.228;2023-04-07T04:30:07;30.47;;;16.27;;
50968;SDS011;36982;51.474;7.228;2023-04-07T04:32:33;28.50;;;16.30;;
50968;SDS011;36982;51.474;7.228;2023-04-07T04:34:59;29.83;;;16.20;;
50968;SDS011;36982;51.474;7.228;2023-04-07T04:37:25;31.80;;;16.50;;
50968;SDS011;36982;51.474;7.228;2023-04-07T04:39:51;31.90;;;17.07;;
50968;SDS011;36982;51.474;7.228;2023-04-07T04:42:17;31.03;;;17.20;;
50968;SDS011;36982;51.474;7.228;2023-04-07T04:44:42;30.23;;;15.23;;
50968;SDS011;36982;51.474;7.228;2023-04-07T04:47:08;31.30;;;15.30;;
50968;SDS011;36982;51.474;7.228;2023-04-07T04:49:33;30.13;;;15.73;;
50968;SDS011;36982;51.474;7.228;2023-04-07T04:52:00;26.47;;;13.87;;
50968;SDS011;36982;51.474;7.228;2023-04-07T04:54:25;26.43;;;15.10;;
50968;SDS011;36982;51.474;7.228;2023-04-07T04:56:51;29.90;;;16.33;;
50968;SDS011;36982;51.474;7.228;2023-04-07T04:59:17;29.53;;;15.33;;
50968;SDS011;36982;51.474;7.228;2023-04-07T05:01:42;25.80;;;13.40;;
50968;SDS011;36982;51.474;7.228;2023-04-07T05:04:08;29.23;;;14.47;;
50968;SDS011;36982;51.474;7.228;2023-04-07T05:06:34;28.67;;;14.60;;
50968;SDS011;36982;51.474;7.228;2023-04-07T05:09:00;22.20;;;11.13;;
50968;SDS011;36982;51.474;7.228;2023-04-07T05:11:25;27.07;;;14.03;;
50968;SDS011;36982;51.474;7.228;2023-04-07T05:13:51;26.93;;;14.03;;
50968;SDS011;36982;51.474;7.228;2023-04-07T05:16:17;27.67;;;14.23;;
50968;SDS011;36982;51.474;7.228;2023-04-07T05:18:42;27.13;;;14.13;;
50968;SDS011;36982;51.474;7.228;2023-04-07T05:21:08;32.27;;;15.80;;
50968;SDS011;36982;51.474;7.228;2023-04-07T05:23:34;29.60;;;14.87;;
50968;SDS011;36982;51.474;7.228;2023-04-07T05:26:00;29.73;;;14.67;;
50968;SDS011;36982;51.474;7.228;2023-04-07T05:28:26;28.07;;;14.73;;
50968;SDS011;36982;51.474;7.228;2023-04-07T05:30:51;31.10;;;15.57;;
50968;SDS011;36982;51.474;7.228;2023-04-07T05:33:17;31.37;;;15.87;;
50968;SDS011;36982;51.474;7.228;2023-04-07T05:35:43;28.70;;;15.73;;
50968;SDS011;36982;51.474;7.228;2023-04-07T05:38:10;26.43;;;15.63;;
50968;SDS011;36982;51.474;7.228;2023-04-07T05:40:36;25.90;;;14.90;;
50968;SDS011;36982;51.474;7.228;2023-04-07T05:43:01;29.70;;;15.83;;
50968;SDS011;36982;51.474;7.228;2023-04-07T05:45:27;26.43;;;14.87;;
50968;SDS011;36982;51.474;7.228;2023-04-07T05:47:53;26.73;;;14.63;;
50968;SDS011;36982;51.474;7.228;2023-04-07T05:50:18;24.63;;;14.80;;
50968;SDS011;36982;51.474;7.228;2023-04-07T05:52:44;24.63;;;15.40;;
50968;SDS011;36982;51.474;7.228;2023-04-07T05:55:10;25.03;;;14.60;;
50968;SDS011;36982;51.474;7.228;2023-04-07T05:57:36;27.23;;;14.67;;
50968;SDS011;36982;51.474;7.228;2023-04-07T06:00:02;25.93;;;13.90;;
50968;SDS011;36982;51.474;7.228;2023-04-07T06:02:28;23.40;;;13.63;;
50968;SDS011;36982;51.474;7.228;2023-04-07T06:04:54;22.10;;;12.47;;
50968;SDS011;36982;51.474;7.228;2023-04-07T06:07:20;23.07;;;13.37;;
50968;SDS011;36982;51.474;7.228;2023-04-07T06:09:46;24.43;;;12.80;;
50968;SDS011;36982;51.474;7.228;2023-04-07T06:12:11;22.77;;;13.57;;
50968;SDS011;36982;51.474;7.228;2023-04-07T06:14:39;22.80;;;12.63;;
50968;SDS011;36982;51.474;7.228;2023-04-07T06:17:04;22.93;;;12.83;;
50968;SDS011;36982;51.474;7.228;2023-04-07T06:19:30;26.27;;;13.97;;
50968;SDS011;36982;51.474;7.228;2023-04-07T06:21:57;24.97;;;13.73;;
50968;SDS011;36982;51.474;7.228;2023-04-07T06:24:22;24.73;;;13.17;;
50968;SDS011;36982;51.474;7.228;2023-04-07T06:26:49;24.57;;;13.80;;
50968;SDS011;36982;51.474;7.228;2023-04-07T06:29:16;26.37;;;13.97;;
50968;SDS011;36982;51.474;7.228;2023-04-07T06:31:42;19.33;;;11.20;;
50968;SDS011;36982;51.474;7.228;2023-04-07T06:34:07;18.67;;;11.87;;
50968;SDS011;36982;51.474;7.228;2023-04-07T06:36:33;21.80;;;11.27;;
50968;SDS011;36982;51.474;7.228;2023-04-07T06:38:59;19.43;;;11.67;;
50968;SDS011;36982;51.474;7.228;2023-04-07T06:41:25;18.20;;;9.27;;
50968;SDS011;36982;51.474;7.228;2023-04-07T06:43:50;18.73;;;10.27;;
50968;SDS011;36982;51.474;7.228;2023-04-07T06:46:16;19.83;;;10.40;;
50968;SDS011;36982;51.474;7.228;2023-04-07T06:48:42;17.27;;;9.73;;
50968;SDS011;36982;51.474;7.228;2023-04-07T06:51:08;18.07;;;9.27;;
50968;SDS011;36982;51.474;7.228;2023-04-07T06:53:34;19.00;;;10.57;;
50968;SDS011;36982;51.474;7.228;2023-04-07T06:56:03;20.53;;;10.80;;
50968;SDS011;36982;51.474;7.228;2023-04-07T06:58:29;19.07;;;10.60;;
50968;SDS011;36982;51.474;7.228;2023-04-07T07:00:55;17.50;;;9.80;;
50968;SDS011;36982;51.474;7.228;2023-04-07T07:03:20;18.97;;;10.60;;
50968;SDS011;36982;51.474;7.228;2023-04-07T07:05:46;22.03;;;11.60;;
50968;SDS011;36982;51.474;7.228;2023-04-07T07:08:12;20.43;;;10.70;;
50968;SDS011;36982;51.474;7.228;2023-04-07T07:10:37;19.00;;;10.40;;
50968;SDS011;36982;51.474;7.228;2023-04-07T07:13:03;18.63;;;10.13;;
50968;SDS011;36982;51.474;7.228;2023-04-07T07:15:28;16.93;;;9.63;;
50968;SDS011;36982;51.474;7.228;2023-04-07T07:17:54;15.33;;;8.73;;
50968;SDS011;36982;51.474;7.228;2023-04-07T07:20:20;15.17;;;8.73;;
50968;SDS011;36982;51.474;7.228;2023-04-07T07:22:47;15.17;;;8.20;;
50968;SDS011;36982;51.474;7.228;2023-04-07T07:25:13;15.00;;;8.27;;
50968;SDS011;36982;51.474;7.228;2023-04-07T07:27:38;16.87;;;8.57;;
50968;SDS011;36982;51.474;7.228;2023-04-07T07:30:04;17.07;;;8.50;;
50968;SDS011;36982;51.474;7.228;2023-04-07T07:32:30;13.10;;;7.67;;
50968;SDS011;36982;51.474;7.228;2023-04-07T07:34:56;12.70;;;7.63;;
50968;SDS011;36982;51.474;7.228;2023-04-07T07:37:22;14.30;;;7.80;;
50968;SDS011;36982;51.474;7.228;2023-04-07T07:39:48;13.77;;;7.77;;
50968;SDS011;36982;51.474;7.228;2023-04-07T07:42:13;12.13;;;6.80;;
50968;SDS011;36982;51.474;7.228;2023-04-07T07:44:39;11.63;;;6.90;;
50968;SDS011;36982;51.474;7.228;2023-04-07T07:47:05;11.60;;;6.83;;
50968;SDS011;36982;51.474;7.228;2023-04-07T07:49:30;13.40;;;7.50;;
50968;SDS011;36982;51.474;7.228;2023-04-07T07:51:56;15.10;;;7.30;;
50968;SDS011;36982;51.474;7.228;2023-04-07T07:54:23;12.97;;;7.70;;
50968;SDS011;36982;51.474;7.228;2023-04-07T07:56:49;13.97;;;7.47;;
50968;SDS011;36982;51.474;7.228;2023-04-07T07:59:15;16.93;;;7.17;;
50968;SDS011;36982;51.474;7.228;2023-04-07T08:01:45;11.23;;;6.73;;
50968;SDS011;36982;51.474;7.228;2023-04-07T08:04:11;11.13;;;6.57;;
50968;SDS011;36982;51.474;7.228;2023-04-07T08:06:36;11.87;;;6.33;;
50968;SDS011;36982;51.474;7.228;2023-04-07T08:09:02;9.17;;;5.67;;
50968;SDS011;36982;51.474;7.228;2023-04-07T08:11:28;8.97;;;5.80;;
50968;SDS011;36982;51.474;7.228;2023-04-07T08:13:53;11.03;;;6.10;;
50968;SDS011;36982;51.474;7.228;2023-04-07T08:16:19;10.00;;;5.33;;
50968;SDS011;36982;51.474;7.228;2023-04-07T08:18:46;11.23;;;6.13;;
50968;SDS011;36982;51.474;7.228;2023-04-07T08:21:11;10.87;;;6.20;;
50968;SDS011;36982;51.474;7.228;2023-04-07T08:23:37;11.87;;;6.17;;
50968;SDS011;36982;51.474;7.228;2023-04-07T08:26:03;9.93;;;6.07;;
50968;SDS011;36982;51.474;7.228;2023-04-07T08:28:28;12.57;;;7.87;;
50968;SDS011;36982;51.474;7.228;2023-04-07T08:30:54;11.83;;;6.00;;
50968;SDS011;36982;51.474;7.228;2023-04-07T08:33:20;9.77;;;5.63;;
50968;SDS011;36982;51.474;7.228;2023-04-07T08:35:45;11.07;;;5.77;;
50968;SDS011;36982;51.474;7.228;2023-04-07T08:38:11;11.33;;;6.00;;
50968;SDS011;36982;51.474;7.228;2023-04-07T08:40:37;9.63;;;5.57;;
50968;SDS011;36982;51.474;7.228;2023-04-07T08:43:07;10.53;;;6.00;;
50968;SDS011;36982;51.474;7.228;2023-04-07T08:45:34;9.47;;;5.70;;
50968;SDS011;36982;51.474;7.228;2023-04-07T08:48:07;11.07;;;6.30;;
50968;SDS011;36982;51.474;7.228;2023-04-07T08:50:42;9.60;;;6.30;;
50968;SDS011;36982;51.474;7.228;2023-04-07T08:53:10;11.63;;;6.80;;
50968;SDS011;36982;51.474;7.228;2023-04-07T08:55:39;9.63;;;6.10;;
50968;SDS011;36982;51.474;7.228;2023-04-07T08:58:05;9.53;;;6.37;;
50968;SDS011;36982;51.474;7.228;2023-04-07T09:00:36;12.87;;;6.67;;
50968;SDS011;36982;51.474;7.228;2023-04-07T09:03:07;12.23;;;6.60;;
50968;SDS011;36982;51.474;7.228;2023-04-07T09:05:33;11.97;;;6.77;;
50968;SDS011;36982;51.474;7.228;2023-04-07T09:08:04;13.07;;;6.90;;
50968;SDS011;36982;51.474;7.228;2023-04-07T09:10:30;12.77;;;6.80;;
50968;SDS011;36982;51.474;7.228;2023-04-07T09:12:57;11.90;;;6.60;;
50968;SDS011;36982;51.474;7.228;2023-04-07T09:15:23;11.77;;;6.97;;
50968;SDS011;36982;51.474;7.228;2023-04-07T09:17:55;14.93;;;7.77;;
50968;SDS011;36982;51.474;7.228;2023-04-07T09:20:21;12.87;;;7.30;;
50968;SDS011;36982;51.474;7.228;2023-04-07T09:22:47;10.33;;;6.47;;
50968;SDS011;36982;51.474;7.228;2023-04-07T09:25:18;11.30;;;6.47;;
50968;SDS011;36982;51.474;7.228;2023-04-07T09:30:26;11.37;;;6.27;;
50968;SDS011;36982;51.474;7.228;2023-04-07T09:32:53;12.57;;;6.57;;
50968;SDS011;36982;51.474;7.228;2023-04-07T09:35:19;12.17;;;7.23;;
50968;SDS011;36982;51.474;7.228;2023-04-07T09:40:32;9.87;;;6.07;;
50968;SDS011;36982;51.474;7.228;2023-04-07T09:43:00;12.50;;;6.60;;
50968;SDS011;36982;51.474;7.228;2023-04-07T09:45:27;11.60;;;6.10;;
50968;SDS011;36982;51.474;7.228;2023-04-07T09:47:55;12.07;;;6.90;;
50968;SDS011;36982;51.474;7.228;2023-04-07T09:50:34;12.60;;;6.57;;
50968;SDS011;36982;51.474;7.228;2023-04-07T09:53:01;10.53;;;6.83;;
50968;SDS011;36982;51.474;7.228;2023-04-07T09:55:28;11.03;;;6.30;;
50968;SDS011;36982;51.474;7.228;2023-04-07T09:57:55;11.50;;;6.37;;
50968;SDS011;36982;51.474;7.228;2023-04-07T10:00:20;9.63;;;5.73;;
50968;SDS011;36982;51.474;7.228;2023-04-07T10:02:47;8.93;;;5.73;;
50968;SDS011;36982;51.474;7.228;2023-04-07T10:05:14;8.00;;;5.23;;
50968;SDS011;36982;51.474;7.228;2023-04-07T10:07:40;8.97;;;6.03;;
50968;SDS011;36982;51.474;7.228;2023-04-07T10:10:07;11.67;;;6.67;;
50968;SDS011;36982;51.474;7.228;2023-04-07T10:12:36;11.93;;;6.37;;
50968;SDS011;36982;51.474;7.228;2023-04-07T10:15:02;11.47;;;6.43;;
50968;SDS011;36982;51.474;7.228;2023-04-07T10:17:28;10.50;;;6.60;;
50968;SDS011;36982;51.474;7.228;2023-04-07T10:19:56;10.20;;;6.63;;
50968;SDS011;36982;51.474;7.228;2023-04-07T10:22:22;9.93;;;6.50;;
50968;SDS011;36982;51.474;7.228;2023-04-07T10:27:22;10.53;;;6.40;;
50968;SDS011;36982;51.474;7.228;2023-04-07T10:29:55;9.43;;;5.90;;
50968;SDS011;36982;51.474;7.228;2023-04-07T10:32:22;10.27;;;5.77;;
50968;SDS011;36982;51.474;7.228;2023-04-07T10:37:20;10.33;;;5.93;;
50968;SDS011;36982;51.474;7.228;2023-04-07T10:39:49;10.57;;;6.33;;
50968;SDS011;36982;51.474;7.228;2023-04-07T10:45:05;11.23;;;6.10;;
50968;SDS011;36982;51.474;7.228;2023-04-07T10:47:32;9.33;;;5.20;;
50968;SDS011;36982;51.474;7.228;2023-04-07T10:52:44;8.03;;;4.33;;
50968;SDS011;36982;51.474;7.228;2023-04-07T10:55:53;6.27;;;3.70;;
50968;SDS011;36982;51.474;7.228;2023-04-07T11:00:38;5.87;;;3.77;;
50968;SDS011;36982;51.474;7.228;2023-04-07T11:03:10;5.87;;;3.70;;
50968;SDS011;36982;51.474;7.228;2023-04-07T11:05:37;5.90;;;3.67;;
50968;SDS011;36982;51.474;7.228;2023-04-07T11:08:04;5.57;;;3.63;;
50968;SDS011;36982;51.474;7.228;2023-04-07T11:10:31;5.10;;;3.87;;
50968;SDS011;36982;51.474;7.228;2023-04-07T11:13:04;5.37;;;3.40;;
50968;SDS011;36982;51.474;7.228;2023-04-07T11:15:36;5.33;;;3.73;;
50968;SDS011;36982;51.474;7.228;2023-04-07T11:18:08;6.07;;;4.37;;
50968;SDS011;36982;51.474;7.228;2023-04-07T11:20:41;9.93;;;6.93;;
50968;SDS011;36982;51.474;7.228;2023-04-07T11:23:18;4.80;;;3.70;;
50968;SDS011;36982;51.474;7.228;2023-04-07T11:25:46;7.47;;;5.00;;
50968;SDS011;36982;51.474;7.228;2023-04-07T11:28:14;7.33;;;4.87;;
50968;SDS011;36982;51.474;7.228;2023-04-07T11:30:50;7.00;;;5.13;;
50968;SDS011;36982;51.474;7.228;2023-04-07T11:33:20;6.23;;;4.87;;
50968;SDS011;36982;51.474;7.228;2023-04-07T11:35:48;6.13;;;4.80;;
50968;SDS011;36982;51.474;7.228;2023-04-07T11:38:19;7.37;;;5.40;;
50968;SDS011;36982;51.474;7.228;2023-04-07T11:40:46;7.33;;;5.60;;
50968;SDS011;36982;51.474;7.228;2023-04-07T11:43:30;6.47;;;5.47;;
50968;SDS011;36982;51.474;7.228;2023-04-07T11:46:03;6.87;;;5.97;;
50968;SDS011;36982;51.474;7.228;2023-04-07T11:48:32;7.73;;;6.03;;
50968;SDS011;36982;51.474;7.228;2023-04-07T11:50:59;7.23;;;6.00;;
50968;SDS011;36982;51.474;7.228;2023-04-07T11:53:31;7.30;;;6.33;;
50968;SDS011;36982;51.474;7.228;2023-04-07T11:56:08;8.20;;;6.20;;
50968;SDS011;36982;51.474;7.228;2023-04-07T11:58:45;8.30;;;6.90;;
50968;SDS011;36982;51.474;7.228;2023-04-07T12:01:14;7.30;;;6.00;;
50968;SDS011;36982;51.474;7.228;2023-04-07T12:03:53;6.47;;;5.77;;
50968;SDS011;36982;51.474;7.228;2023-04-07T12:06:30;7.70;;;6.20;;
50968;SDS011;36982;51.474;7.228;2023-04-07T12:09:03;8.07;;;6.60;;
50968;SDS011;36982;51.474;7.228;2023-04-07T12:11:29;8.23;;;6.23;;
50968;SDS011;36982;51.474;7.228;2023-04-07T12:13:56;7.07;;;5.80;;
50968;SDS011;36982;51.474;7.228;2023-04-07T12:16:22;7.03;;;5.77;;
50968;SDS011;36982;51.474;7.228;2023-04-07T12:18:49;6.73;;;6.03;;
50968;SDS011;36982;51.474;7.228;2023-04-07T12:21:15;7.27;;;6.10;;
50968;SDS011;36982;51.474;7.228;2023-04-07T12:23:45;7.03;;;5.83;;
50968;SDS011;36982;51.474;7.228;2023-04-07T12:26:11;7.40;;;6.00;;
50968;SDS011;36982;51.474;7.228;2023-04-07T12:28:37;8.00;;;6.10;;
50968;SDS011;36982;51.474;7.228;2023-04-07T12:31:03;8.00;;;6.43;;
50968;SDS011;36982;51.474;7.228;2023-04-07T12:33:29;7.73;;;6.80;;
50968;SDS011;36982;51.474;7.228;2023-04-07T12:35:56;9.83;;;6.63;;
50968;SDS011;36982;51.474;7.228;2023-04-07T12:38:22;8.33;;;6.87;;
50968;SDS011;36982;51.474;7.228;2023-04-07T12:40:48;7.73;;;6.33;;
50968;SDS011;36982;51.474;7.228;2023-04-07T12:43:13;8.77;;;6.63;;
50968;SDS011;36982;51.474;7.228;2023-04-07T12:45:39;10.53;;;6.60;;
50968;SDS011;36982;51.474;7.228;2023-04-07T12:48:05;6.60;;;5.70;;
50968;SDS011;36982;51.474;7.228;2023-04-07T12:50:30;9.13;;;6.17;;
50968;SDS011;36982;51.474;7.228;2023-04-07T12:52:56;8.77;;;6.33;;
50968;SDS011;36982;51.474;7.228;2023-04-07T12:55:27;7.33;;;5.40;;
50968;SDS011;36982;51.474;7.228;2023-04-07T12:57:54;7.57;;;5.30;;
50968;SDS011;36982;51.474;7.228;2023-04-07T13:00:19;5.10;;;4.30;;
50968;SDS011;36982;51.474;7.228;2023-04-07T13:02:45;4.00;;;3.23;;
50968;SDS011;36982;51.474;7.228;2023-04-07T13:05:11;3.50;;;3.20;;
50968;SDS011;36982;51.474;7.228;2023-04-07T13:07:36;3.93;;;3.20;;
50968;SDS011;36982;51.474;7.228;2023-04-07T13:10:02;3.57;;;3.13;;
50968;SDS011;36982;51.474;7.228;2023-04-07T13:12:30;4.90;;;3.47;;
50968;SDS011;36982;51.474;7.228;2023-04-07T13:14:55;5.27;;;3.53;;
50968;SDS011;36982;51.474;7.228;2023-04-07T13:17:21;4.40;;;3.20;;
50968;SDS011;36982;51.474;7.228;2023-04-07T13:19:46;3.77;;;3.37;;
50968;SDS011;36982;51.474;7.228;2023-04-07T13:22:12;4.63;;;3.20;;
50968;SDS011;36982;51.474;7.228;2023-04-07T13:24:38;4.97;;;3.17;;
50968;SDS011;36982;51.474;7.228;2023-04-07T13:27:04;3.93;;;3.17;;
50968;SDS011;36982;51.474;7.228;2023-04-07T13:29:30;4.00;;;3.40;;
50968;SDS011;36982;51.474;7.228;2023-04-07T13:32:05;4.30;;;3.90;;
50968;SDS011;36982;51.474;7.228;2023-04-07T13:34:32;4.87;;;3.70;;
50968;SDS011;36982;51.474;7.228;2023-04-07T13:37:02;5.33;;;4.03;;
50968;SDS011;36982;51.474;7.228;2023-04-07T13:39:29;6.13;;;4.13;;
50968;SDS011;36982;51.474;7.228;2023-04-07T13:41:55;4.53;;;3.70;;
50968;SDS011;36982;51.474;7.228;2023-04-07T13:44:22;5.10;;;4.20;;
50968;SDS011;36982;51.474;7.228;2023-04-07T13:46:48;5.60;;;4.17;;
50968;SDS011;36982;51.474;7.228;2023-04-07T13:49:13;5.67;;;4.47;;
50968;SDS011;36982;51.474;7.228;2023-04-07T13:51:39;5.60;;;4.37;;
50968;SDS011;36982;51.474;7.228;2023-04-07T13:54:05;5.87;;;4.77;;
50968;SDS011;36982;51.474;7.228;2023-04-07T13:56:31;5.13;;;4.50;;
50968;SDS011;36982;51.474;7.228;2023-04-07T13:58:59;5.03;;;4.40;;
50968;SDS011;36982;51.474;7.228;2023-04-07T14:01:25;4.77;;;4.23;;
50968;SDS011;36982;51.474;7.228;2023-04-07T14:03:51;5.07;;;4.10;;
50968;SDS011;36982;51.474;7.228;2023-04-07T14:06:17;4.73;;;4.13;;
50968;SDS011;36982;51.474;7.228;2023-04-07T14:08:46;4.83;;;4.30;;
50968;SDS011;36982;51.474;7.228;2023-04-07T14:11:15;5.20;;;4.70;;
50968;SDS011;36982;51.474;7.228;2023-04-07T14:13:41;5.50;;;4.27;;
50968;SDS011;36982;51.474;7.228;2023-04-07T14:16:07;5.63;;;4.80;;
50968;SDS011;36982;51.474;7.228;2023-04-07T14:18:33;5.30;;;4.80;;
50968;SDS011;36982;51.474;7.228;2023-04-07T14:20:58;5.57;;;4.77;;
50968;SDS011;36982;51.474;7.228;2023-04-07T14:23:25;5.37;;;4.87;;
50968;SDS011;36982;51.474;7.228;2023-04-07T14:25:51;7.17;;;5.00;;
50968;SDS011;36982;51.474;7.228;2023-04-07T14:28:17;5.03;;;4.53;;
50968;SDS011;36982;51.474;7.228;2023-04-07T14:30:42;6.07;;;5.07;;
50968;SDS011;36982;51.474;7.228;2023-04-07T14:33:08;6.20;;;5.07;;
50968;SDS011;36982;51.474;7.228;2023-04-07T14:35:37;5.47;;;4.83;;
50968;SDS011;36982;51.474;7.228;2023-04-07T14:38:03;6.50;;;5.80;;
50968;SDS011;36982;51.474;7.228;2023-04-07T14:40:29;6.93;;;5.80;;
50968;SDS011;36982;51.474;7.228;2023-04-07T14:42:55;7.30;;;5.63;;
50968;SDS011;36982;51.474;7.228;2023-04-07T14:45:22;5.80;;;5.20;;
50968;SDS011;36982;51.474;7.228;2023-04-07T14:47:49;7.20;;;5.53;;
50968;SDS011;36982;51.474;7.228;2023-04-07T14:50:15;6.60;;;5.60;;
50968;SDS011;36982;51.474;7.228;2023-04-07T14:52:40;6.07;;;5.47;;
50968;SDS011;36982;51.474;7.228;2023-04-07T14:55:07;7.03;;;6.00;;
50968;SDS011;36982;51.474;7.228;2023-04-07T14:57:33;6.90;;;6.20;;
50968;SDS011;36982;51.474;7.228;2023-04-07T14:59:58;6.77;;;6.03;;
50968;SDS011;36982;51.474;7.228;2023-04-07T15:02:24;6.40;;;5.67;;